createdAt,value
2023-05-04T00:01:56.203Z,49.64
2023-05-04T00:06:56.203Z,49.41
2023-05-04T00:11:56.194Z,49.6
2023-05-04T00:16:56.205Z,49.4
2023-05-04T00:21:56.197Z,49.47
2023-05-04T00:26:56.209Z,49.6
2023-05-04T00:31:56.209Z,49.26
2023-05-04T00:36:56.211Z,49.2
2023-05-04T00:41:56.211Z,49.29
2023-05-04T00:46:56.202Z,49.54
2023-05-04T00:51:56.213Z,49.29
2023-05-04T00:56:56.204Z,49.18
2023-05-04T01:01:56.240Z,48.98
2023-05-04T01:06:56.216Z,49.24
2023-05-04T01:11:56.206Z,49.09
2023-05-04T01:16:56.220Z,49.09
2023-05-04T01:21:56.219Z,49.18
2023-05-04T01:26:56.221Z,49
2023-05-04T01:31:56.211Z,49.17
2023-05-04T01:36:56.223Z,49.27
2023-05-04T01:41:56.223Z,49.52
2023-05-04T01:46:56.213Z,49.21
2023-05-04T01:51:56.224Z,48.74
2023-05-04T01:56:56.215Z,48.45
2023-05-04T02:01:56.227Z,48.4
2023-05-04T02:06:56.227Z,48.69
2023-05-04T02:11:56.229Z,49.27
2023-05-04T02:16:56.231Z,49.19
2023-05-04T02:21:56.220Z,49.1
2023-05-04T02:26:56.232Z,48.5
2023-05-04T02:31:56.222Z,48.32
2023-05-04T02:36:56.234Z,48.28
2023-05-04T02:41:56.234Z,48.84
2023-05-04T02:46:56.225Z,49.04
2023-05-04T02:51:56.235Z,48.7
2023-05-04T02:56:56.226Z,48.45
2023-05-04T03:01:56.238Z,48.67
2023-05-04T03:06:56.238Z,48.83
2023-05-04T03:12:12.717Z,48.79
2023-05-04T03:16:56.240Z,48.89
2023-05-04T03:21:56.231Z,48.57
2023-05-04T03:26:56.243Z,48.82
2023-05-04T03:31:56.232Z,48.82
2023-05-04T03:36:56.244Z,48.97
2023-05-04T03:41:56.244Z,48.72
2023-05-04T03:46:56.234Z,48.58
2023-05-04T03:51:56.246Z,48.78
2023-05-04T03:56:56.237Z,48.61
2023-05-04T04:01:56.249Z,48.66
2023-05-04T04:06:56.238Z,48.45
2023-05-04T04:11:56.250Z,48.38
2023-05-04T04:16:56.252Z,48.22
2023-05-04T04:21:56.241Z,48.17
2023-05-04T04:26:56.296Z,48.41
2023-05-04T04:31:56.243Z,48.6
2023-05-04T04:36:56.254Z,48.4
2023-05-04T04:41:56.254Z,47.7
2023-05-04T04:46:56.256Z,47.84
2023-05-04T04:51:56.258Z,47.34
2023-05-04T04:56:56.247Z,46.82
2023-05-04T05:01:56.259Z,46.74
2023-05-04T05:06:56.249Z,46.47
2023-05-04T05:11:56.261Z,45.84
2023-05-04T05:16:56.261Z,45.28
2023-05-04T05:21:56.251Z,44.89
2023-05-04T05:26:56.264Z,44.5
2023-05-04T05:31:56.254Z,44.13
2023-05-04T05:36:56.265Z,43.84
2023-05-04T05:41:56.267Z,43.14
2023-05-04T05:46:56.268Z,42.7
2023-05-04T05:51:56.270Z,42.43
2023-05-04T05:56:56.259Z,42.6
2023-05-04T06:01:56.271Z,42.96
2023-05-04T06:06:56.262Z,42.96
2023-05-04T06:11:56.273Z,43.09
2023-05-04T06:16:56.274Z,43.42
2023-05-04T06:21:56.266Z,43.46
2023-05-04T06:26:56.279Z,43.51
2023-05-04T06:31:56.269Z,43.94
2023-05-04T06:36:56.280Z,44.16
2023-05-04T06:41:56.271Z,43.94
2023-05-04T06:46:56.283Z,44.18
2023-05-04T06:51:56.284Z,44
2023-05-04T06:56:56.276Z,44.17
2023-05-04T07:01:56.289Z,44.05
2023-05-04T07:06:56.279Z,44.06
2023-05-04T07:11:56.290Z,44.28
2023-05-04T07:16:56.293Z,44
2023-05-04T07:21:56.293Z,44.07
2023-05-04T07:26:56.297Z,44.23
2023-05-04T07:31:56.286Z,43.92
2023-05-04T07:36:56.298Z,43.67
2023-05-04T07:41:56.289Z,43.66
2023-05-04T07:46:56.301Z,43.57
2023-05-04T07:56:56.294Z,43.58
2023-05-04T08:06:56.298Z,43.11
2023-05-04T08:12:12.787Z,35.42
2023-05-04T08:17:12.789Z,28.83
2023-05-04T08:22:12.781Z,27.35
2023-05-04T08:27:12.797Z,26.1
2023-05-04T08:32:12.786Z,28.3
2023-05-04T08:36:56.322Z,27.6
2023-05-04T08:41:56.325Z,27.6
2023-05-04T08:46:56.317Z,28.08
2023-05-04T08:51:56.332Z,28.17
2023-05-04T08:56:56.322Z,30.69
2023-05-04T09:01:56.335Z,32.63
2023-05-04T09:06:56.328Z,32.89
2023-05-04T09:11:56.341Z,32.72
2023-05-04T09:16:56.367Z,33.86
2023-05-04T09:21:56.336Z,34.39
2023-05-04T09:26:56.353Z,34.14
2023-05-04T09:31:56.341Z,34.97
2023-05-04T09:36:56.354Z,34.82
2023-05-04T09:41:56.357Z,36.84
2023-05-04T09:46:56.360Z,36.16
2023-05-04T09:51:56.364Z,35.5
2023-05-04T09:56:56.355Z,37.22
2023-05-04T10:01:56.368Z,36.5
2023-05-04T10:11:56.374Z,36.46
2023-05-04T10:16:56.377Z,37.4
2023-05-04T10:21:56.369Z,36.96
2023-05-04T10:26:56.384Z,37.9
2023-05-04T10:31:56.375Z,37.86
2023-05-04T10:36:56.388Z,39.15
2023-05-04T10:41:56.391Z,38.55
2023-05-04T10:47:12.870Z,37.47
2023-05-04T10:51:56.397Z,36.74
2023-05-04T10:56:56.389Z,38.94
2023-05-04T11:01:56.402Z,38.71
2023-05-04T11:06:56.395Z,38.38
2023-05-04T11:11:56.409Z,37.42
2023-05-04T11:16:56.410Z,37.77
2023-05-04T11:21:56.403Z,39.97
2023-05-04T11:26:56.418Z,39.56
2023-05-04T11:31:56.409Z,39.06
2023-05-04T11:36:56.422Z,41.1
2023-05-04T11:41:56.426Z,40.59
2023-05-04T11:46:56.428Z,38.69
2023-05-04T11:51:56.494Z,38.81
2023-05-04T11:56:56.423Z,39.47
2023-05-04T12:01:56.480Z,38.47
2023-05-04T12:06:56.429Z,38.26
2023-05-04T12:11:56.442Z,37.78
2023-05-04T12:16:56.445Z,37.29
2023-05-04T12:21:56.498Z,37.64
2023-05-04T12:26:56.453Z,40.11
2023-05-04T12:31:56.444Z,40.3
2023-05-04T12:36:56.456Z,41.7
2023-05-04T12:41:56.449Z,41.7
2023-05-04T12:46:56.462Z,41.39
2023-05-04T12:51:56.465Z,41.24
2023-05-04T12:56:56.458Z,40.55
2023-05-04T13:01:56.473Z,39.9
2023-05-04T13:06:56.464Z,39.84
2023-05-04T13:11:56.477Z,39.49
2023-05-04T13:16:56.479Z,38.63
2023-05-04T13:21:56.482Z,39.35
2023-05-04T13:26:56.487Z,40.59
2023-05-04T13:31:56.478Z,39.8
2023-05-04T13:36:56.491Z,38.71
2023-05-04T13:41:56.484Z,39.6
2023-05-04T13:46:56.497Z,41.3
2023-05-04T13:51:56.501Z,41.09
2023-05-04T13:56:56.493Z,41.97
2023-05-04T14:01:56.507Z,41.28
2023-05-04T14:06:56.498Z,41.69
2023-05-04T14:11:56.511Z,41.21
2023-05-04T14:16:56.514Z,40.58
2023-05-04T14:21:56.517Z,39.87
2023-05-04T14:26:56.522Z,38.94
2023-05-04T14:31:56.513Z,38.53
2023-05-04T14:36:56.526Z,39.6
2023-05-04T14:41:56.519Z,42.21
2023-05-04T14:46:56.555Z,41.59
2023-05-04T14:51:56.534Z,41.97
2023-05-04T14:56:56.539Z,42.91
2023-05-04T15:01:56.542Z,44
2023-05-04T15:06:56.533Z,43.59
2023-05-04T15:11:56.546Z,44.34
2023-05-04T15:16:56.548Z,44.82
2023-05-04T15:21:56.551Z,44.89
2023-05-04T15:26:56.596Z,45.83
2023-05-04T15:31:56.547Z,46.01
2023-05-04T15:36:56.561Z,46.12
2023-05-04T15:41:56.552Z,46.44
2023-05-04T15:46:56.565Z,46.01
2023-05-04T15:51:56.568Z,45.61
2023-05-04T15:56:56.570Z,45.12
2023-05-04T16:01:56.575Z,46.25
2023-05-04T16:06:56.566Z,47.33
2023-05-04T16:11:56.578Z,48.22
2023-05-04T16:16:56.571Z,47.75
2023-05-04T16:21:56.583Z,47.33
2023-05-04T16:26:56.586Z,47.22
2023-05-04T16:31:56.579Z,47.67
2023-05-04T16:36:56.593Z,48.57
2023-05-04T16:41:56.584Z,49
2023-05-04T16:46:56.596Z,49.23
2023-05-04T16:51:56.599Z,49.87
2023-05-04T16:56:56.601Z,50.37
2023-05-04T17:01:56.605Z,50.21
2023-05-04T17:06:56.596Z,50.5
2023-05-04T17:11:57.681Z,50.34
2023-05-04T17:16:56.601Z,50.44
2023-05-04T17:21:56.613Z,50.16
2023-05-04T17:26:56.616Z,50.13
2023-05-04T17:31:56.608Z,50.52
2023-05-04T17:36:56.622Z,50.46
2023-05-04T17:41:56.613Z,50.28
2023-05-04T17:46:56.625Z,50.17
2023-05-04T17:51:56.617Z,50.28
2023-05-04T17:56:56.630Z,50.44
2023-05-04T18:01:56.633Z,50.55
2023-05-04T18:06:56.624Z,50.66
2023-05-04T18:12:03.677Z,50.87
2023-05-04T18:16:56.629Z,50.83
2023-05-04T18:21:56.642Z,51.09
2023-05-04T18:27:13.120Z,51.03
2023-05-04T18:31:56.645Z,51.23
2023-05-04T18:36:56.649Z,51.32
2023-05-04T18:41:56.639Z,51.34
2023-05-04T18:46:56.652Z,51.3
2023-05-04T18:51:56.643Z,51.45
2023-05-04T18:56:56.657Z,51.64
2023-05-04T19:01:56.658Z,51.43
2023-05-04T19:06:56.650Z,51.31
2023-05-04T19:12:09.697Z,51.32
2023-05-04T19:16:56.654Z,51.62
2023-05-04T19:21:56.667Z,51.47
2023-05-04T19:26:56.668Z,51.17
2023-05-04T19:31:56.671Z,51.21
2023-05-04T19:36:56.674Z,50.92
2023-05-04T19:41:56.664Z,50.53
2023-05-04T19:46:56.676Z,50.33
2023-05-04T19:51:56.667Z,50.29
2023-05-04T19:56:56.680Z,49.96
2023-05-04T20:01:56.681Z,49.96
2023-05-04T20:06:56.672Z,49.9
2023-05-04T20:12:15.678Z,50.12
2023-05-04T20:16:56.677Z,50.18
2023-05-04T20:21:56.690Z,50.1
2023-05-04T20:26:56.691Z,50.33
2023-05-04T20:31:56.694Z,50.41
2023-05-04T20:36:56.695Z,50.93
2023-05-04T20:41:56.686Z,51.09
2023-05-04T20:46:56.724Z,51.43
2023-05-04T20:51:56.690Z,51.44
2023-05-04T20:56:56.703Z,51.46
2023-05-04T21:01:56.703Z,51.31
2023-05-04T21:06:56.706Z,51.47
2023-05-04T21:12:21.765Z,51.3
2023-05-04T21:16:56.698Z,50.99
2023-05-04T21:21:56.711Z,50.69
2023-05-04T21:26:56.712Z,50.47
2023-05-04T21:31:56.714Z,50.58
2023-05-04T21:36:56.756Z,50.38
2023-05-04T21:41:56.707Z,50.34
2023-05-04T21:46:56.720Z,50.14
2023-05-04T21:51:56.710Z,50.18
2023-05-04T21:56:56.722Z,50.16
2023-05-04T22:01:56.723Z,50.46
2023-05-04T22:06:56.726Z,50.44
2023-05-04T22:12:11.205Z,50.19
2023-05-04T22:22:11.160Z,50.13
2023-05-04T22:26:56.721Z,50.33
2023-05-04T22:32:13.211Z,50.22
2023-05-04T22:36:56.784Z,49.99
2023-05-04T22:41:56.725Z,49.89
2023-05-04T22:46:56.739Z,49.94
2023-05-04T22:51:56.728Z,49.63
2023-05-04T22:56:56.741Z,50.3
2023-05-04T23:01:56.741Z,49.8
2023-05-04T23:06:56.744Z,50.04
2023-05-04T23:11:56.746Z,49.7
2023-05-04T23:16:56.736Z,49.3
2023-05-04T23:21:56.748Z,49.06
2023-05-04T23:26:56.739Z,49.05
2023-05-04T23:31:56.751Z,49.23
2023-05-04T23:36:56.752Z,48.91
2023-05-04T23:41:56.743Z,48.68
2023-05-04T23:46:56.755Z,48.63
2023-05-04T23:51:56.746Z,48.51
2023-05-04T23:56:56.759Z,48.32
